createdAt,value
2019-02-08T00:02:16.330Z,57.80
2019-02-08T00:04:45.392Z,57.70
2019-02-08T00:07:14.331Z,57.30
2019-02-08T00:09:53.252Z,56.20
2019-02-08T00:12:21.894Z,55.50
2019-02-08T00:14:50.533Z,56.80
2019-02-08T00:17:19.175Z,57.90
2019-02-08T00:19:56.730Z,57.30
2019-02-08T00:22:28.484Z,55.90
2019-02-08T00:24:57.229Z,54.60
2019-02-08T00:27:28.508Z,53.20
2019-02-08T00:30:09.396Z,52.30
2019-02-08T00:32:38.452Z,51.90
2019-02-08T00:35:07.145Z,51.90
2019-02-08T00:37:35.856Z,52.60
2019-02-08T00:40:14.318Z,52.60
2019-02-08T00:42:43.221Z,52.70
2019-02-08T00:45:13.828Z,52.60
2019-02-08T00:47:42.672Z,52.60
2019-02-08T00:50:15.675Z,53.10
2019-02-08T00:52:44.371Z,54.50
2019-02-08T00:55:13.104Z,54.90
2019-02-08T00:57:41.736Z,55.00
2019-02-08T01:00:19.357Z,55.10
2019-02-08T01:02:50.602Z,55.60
2019-02-08T01:05:19.562Z,55.40
2019-02-08T01:07:51.045Z,55.20
2019-02-08T01:10:32.294Z,54.50
2019-02-08T01:13:01.647Z,53.80
2019-02-08T01:15:30.552Z,53.10
2019-02-08T01:17:59.183Z,52.50
2019-02-08T01:20:36.954Z,51.80
2019-02-08T01:23:05.589Z,51.30
2019-02-08T01:25:34.580Z,50.90
2019-02-08T01:28:03.528Z,50.60
2019-02-08T01:30:41.669Z,50.60
2019-02-08T01:33:10.445Z,50.50
2019-02-08T01:35:39.359Z,51.20
2019-02-08T01:38:09.309Z,51.40
2019-02-08T01:40:47.045Z,52.10
2019-02-08T01:43:17.721Z,52.10
2019-02-08T01:45:46.462Z,52.00
2019-02-08T01:48:15.193Z,51.90
2019-02-08T01:50:54.664Z,53.00
2019-02-08T01:53:23.359Z,53.40
2019-02-08T01:55:52.052Z,54.60
2019-02-08T01:58:20.778Z,55.30
2019-02-08T02:00:58.657Z,56.00
2019-02-08T02:03:27.344Z,56.00
2019-02-08T02:05:56.131Z,56.10
2019-02-08T02:08:24.938Z,56.50
2019-02-08T02:11:05.783Z,56.80
2019-02-08T02:13:34.518Z,56.10
2019-02-08T02:16:07.814Z,56.60
2019-02-08T02:18:36.478Z,56.40
2019-02-08T02:21:14.543Z,55.70
2019-02-08T02:23:43.210Z,55.40
2019-02-08T02:26:11.880Z,54.70
2019-02-08T02:28:42.654Z,54.30
2019-02-08T02:31:20.421Z,54.30
2019-02-08T02:33:49.210Z,53.90
2019-02-08T02:36:20.704Z,53.40
2019-02-08T02:38:49.391Z,52.90
2019-02-08T02:41:27.356Z,53.00
2019-02-08T02:43:57.915Z,52.00
2019-02-08T02:46:26.613Z,52.30
2019-02-08T02:48:55.714Z,53.50
2019-02-08T02:54:07.948Z,55.30
2019-02-08T02:56:36.707Z,55.10
2019-02-08T02:59:05.861Z,56.10
2019-02-08T03:01:47.438Z,56.40
2019-02-08T03:04:16.363Z,56.50
2019-02-08T03:06:45.646Z,56.60
2019-02-08T03:09:14.586Z,56.00
2019-02-08T03:11:52.333Z,56.20
2019-02-08T03:14:21.147Z,55.40
2019-02-08T03:16:49.814Z,54.70
2019-02-08T03:19:18.880Z,54.60
2019-02-08T03:21:56.791Z,54.80
2019-02-08T03:24:25.716Z,54.90
2019-02-08T03:26:57.457Z,55.30
2019-02-08T03:29:28.189Z,55.60
2019-02-08T03:32:05.804Z,56.20
2019-02-08T03:34:34.736Z,57.30
2019-02-08T03:37:06.303Z,56.70
2019-02-08T03:39:34.946Z,57.00
2019-02-08T03:42:03.819Z,56.80
2019-02-08T03:44:35.743Z,55.90
2019-02-08T03:47:04.521Z,54.80
2019-02-08T03:49:36.120Z,54.20
2019-02-08T03:52:14.091Z,54.10
2019-02-08T03:54:42.903Z,54.20
2019-02-08T03:57:11.673Z,54.30
2019-02-08T03:59:41.610Z,54.10
2019-02-08T04:02:19.640Z,53.90
2019-02-08T04:04:48.580Z,53.70
2019-02-08T04:07:20.681Z,53.20
2019-02-08T04:09:49.356Z,52.80
2019-02-08T04:12:27.433Z,52.60
2019-02-08T04:14:56.422Z,52.40
2019-02-08T04:17:25.326Z,51.90
2019-02-08T04:19:56.644Z,51.70
2019-02-08T04:22:34.511Z,51.40
2019-02-08T04:25:03.458Z,51.30
2019-02-08T04:27:34.463Z,51.20
2019-02-08T04:30:05.989Z,51.60
2019-02-08T04:32:43.727Z,51.50
2019-02-08T04:35:12.375Z,51.10
2019-02-08T04:37:41.319Z,51.20
2019-02-08T04:40:12.714Z,51.00
2019-02-08T04:42:41.764Z,51.30
2019-02-08T04:45:10.607Z,51.20
2019-02-08T04:47:39.678Z,51.00
2019-02-08T04:50:10.273Z,51.20
2019-02-08T04:52:48.414Z,51.40
2019-02-08T04:55:19.559Z,51.60
2019-02-08T04:57:48.638Z,51.60
2019-02-08T05:00:34.613Z,51.70
2019-02-08T05:03:12.391Z,51.70
2019-02-08T05:05:41.169Z,51.50
2019-02-08T05:08:12.717Z,51.10
2019-02-08T05:10:41.388Z,50.90
2019-02-08T05:13:19.189Z,50.90
2019-02-08T05:15:51.114Z,51.00
2019-02-08T05:18:19.842Z,51.20
2019-02-08T05:20:48.617Z,51.20
2019-02-08T05:23:26.721Z,51.70
2019-02-08T05:25:55.595Z,51.60
2019-02-08T05:28:25.545Z,51.60
2019-02-08T05:30:54.525Z,51.30
2019-02-08T05:33:36.030Z,50.80
2019-02-08T05:36:04.808Z,51.00
2019-02-08T05:38:33.523Z,50.80
2019-02-08T05:41:05.465Z,50.90
2019-02-08T05:43:34.286Z,51.30
2019-02-08T05:46:06.525Z,51.50
2019-02-08T05:48:35.291Z,51.60
2019-02-08T05:51:04.012Z,51.90
2019-02-08T05:53:42.086Z,51.90
2019-02-08T05:56:10.796Z,51.90
2019-02-08T05:58:41.099Z,52.30
2019-02-08T06:01:12.842Z,52.30
2019-02-08T06:03:50.842Z,53.20
2019-02-08T06:06:32.037Z,52.30
2019-02-08T06:09:03.384Z,52.10
2019-02-08T06:11:33.005Z,51.90
2019-02-08T06:16:48.913Z,52.00
2019-02-08T06:19:17.673Z,52.00
2019-02-08T06:21:46.399Z,51.60
2019-02-08T06:24:25.479Z,51.40
2019-02-08T06:26:57.718Z,51.10
2019-02-08T06:29:29.377Z,51.10
2019-02-08T06:31:58.046Z,50.80
2019-02-08T06:37:10.515Z,50.20
2019-02-08T06:39:39.301Z,50.10
2019-02-08T06:42:11.455Z,50.10
2019-02-08T06:47:29.863Z,49.90
2019-02-08T06:49:58.673Z,49.60
2019-02-08T06:52:27.530Z,49.60
2019-02-08T06:55:10.805Z,50.30
2019-02-08T06:57:50.417Z,49.80
2019-02-08T07:00:44.622Z,50.10
2019-02-08T07:03:33.060Z,50.20
2019-02-08T07:06:19.921Z,50.10
2019-02-08T07:09:06.810Z,50.30
2019-02-08T07:11:42.195Z,50.40
2019-02-08T07:14:44.573Z,49.90
2019-02-08T07:17:26.750Z,49.60
2019-02-08T07:20:26.749Z,49.30
2019-02-08T07:23:15.452Z,49.10
2019-02-08T07:28:50.881Z,49.60
2019-02-08T07:31:39.734Z,50.10
2019-02-08T07:34:27.076Z,49.90
2019-02-08T07:37:23.797Z,50.00
2019-02-08T07:40:12.838Z,49.60
2019-02-08T07:42:52.540Z,49.50
2019-02-08T07:45:39.940Z,49.50
2019-02-08T07:48:31.632Z,49.30
2019-02-08T07:51:06.680Z,49.40
2019-02-08T07:53:48.601Z,48.90
2019-02-08T07:59:29.942Z,49.10
2019-02-08T08:02:10.291Z,50.00
2019-02-08T08:05:07.212Z,54.40
2019-02-08T08:08:07.213Z,51.70
2019-02-08T08:10:45.135Z,47.30
2019-02-08T08:13:27.237Z,47.80
2019-02-08T08:16:08.531Z,43.80
2019-02-08T08:18:53.045Z,40.70
2019-02-08T08:21:42.208Z,39.80
2019-02-08T08:24:19.217Z,36.70
2019-02-08T08:27:14.332Z,34.70
2019-02-08T08:30:09.173Z,35.10
2019-02-08T08:32:52.486Z,33.90
2019-02-08T08:35:32.968Z,31.70
2019-02-08T08:41:39.361Z,29.90
2019-02-08T08:44:55.707Z,30.60
2019-02-08T08:47:57.136Z,29.50
2019-02-08T08:50:56.463Z,30.50
2019-02-08T08:53:40.971Z,30.80
2019-02-08T08:59:53.739Z,29.40
2019-02-08T09:03:02.623Z,29.50
2019-02-08T09:06:10.282Z,29.10
2019-02-08T09:09:23.437Z,29.40
2019-02-08T09:12:31.088Z,29.60
2019-02-08T09:15:50.299Z,29.10
2019-02-08T09:21:43.979Z,28.20
2019-02-08T09:25:08.190Z,27.60
2019-02-08T09:31:12.724Z,28.20
2019-02-08T09:34:20.568Z,26.90
2019-02-08T09:40:55.613Z,27.70
2019-02-08T09:44:00.597Z,26.60
2019-02-08T09:50:10.630Z,25.40
2019-02-08T09:53:21.792Z,25.20
2019-02-08T09:56:35.424Z,25.80
2019-02-08T09:59:45.349Z,25.20
2019-02-08T10:02:48.344Z,25.30
2019-02-08T10:05:55.227Z,25.00
2019-02-08T10:09:00.010Z,25.10
2019-02-08T10:12:18.548Z,26.10
2019-02-08T10:15:16.218Z,23.80
2019-02-08T10:21:33.998Z,22.90
2019-02-08T10:24:47.325Z,23.20
2019-02-08T10:28:15.559Z,23.80
2019-02-08T10:31:20.337Z,22.70
2019-02-08T10:34:12.935Z,22.50
2019-02-08T10:37:05.991Z,21.10
2019-02-08T10:39:57.751Z,20.30
2019-02-08T10:43:08.506Z,22.00
2019-02-08T10:46:07.392Z,23.70
2019-02-08T10:49:29.833Z,24.30
2019-02-08T10:52:49.144Z,23.10
2019-02-08T10:56:15.007Z,22.40
2019-02-08T10:59:18.577Z,22.80
2019-02-08T11:02:40.892Z,21.50
2019-02-08T11:06:14.237Z,20.30
2019-02-08T11:12:27.363Z,22.70
2019-02-08T11:15:19.860Z,22.10
2019-02-08T11:18:39.303Z,22.40
2019-02-08T11:21:14.706Z,21.40
2019-02-08T11:23:48.818Z,21.60
2019-02-08T11:26:22.504Z,22.40
2019-02-08T11:28:57.470Z,21.80
2019-02-08T11:31:26.374Z,22.60
2019-02-08T11:33:55.121Z,22.70
2019-02-08T11:36:23.836Z,22.70
2019-02-08T11:41:35.683Z,23.30
2019-02-08T11:44:04.368Z,23.40
2019-02-08T11:46:33.013Z,22.70
2019-02-08T11:49:10.989Z,23.30
2019-02-08T11:51:42.996Z,22.80
2019-02-08T11:54:11.694Z,21.30
2019-02-08T11:56:40.793Z,20.80
2019-02-08T11:59:18.700Z,21.20
2019-02-08T12:01:49.187Z,19.80
2019-02-08T12:04:20.146Z,18.90
2019-02-08T12:06:49.127Z,18.80
2019-02-08T12:12:02.316Z,20.30
2019-02-08T12:14:31.247Z,20.70
2019-02-08T12:17:00.542Z,20.20
2019-02-08T12:19:38.271Z,21.40
2019-02-08T12:22:07.301Z,22.10
2019-02-08T12:24:36.034Z,21.50
2019-02-08T12:27:04.772Z,21.00
2019-02-08T12:29:42.806Z,20.20
2019-02-08T12:32:11.744Z,20.20
2019-02-08T12:34:40.809Z,20.20
2019-02-08T12:37:10.433Z,20.10
2019-02-08T12:39:50.704Z,19.60
2019-02-08T12:42:19.831Z,21.10
2019-02-08T12:44:48.840Z,21.50
2019-02-08T12:47:20.136Z,21.00
2019-02-08T12:49:59.358Z,21.00
2019-02-08T12:52:28.268Z,21.50
2019-02-08T12:54:57.016Z,22.10
2019-02-08T12:57:25.845Z,22.70
2019-02-08T13:00:05.180Z,22.20
2019-02-08T13:02:34.116Z,21.30
2019-02-08T13:05:04.505Z,20.90
2019-02-08T13:07:33.268Z,21.80
2019-02-08T13:12:49.685Z,21.70
2019-02-08T13:15:19.432Z,22.80
2019-02-08T13:17:48.275Z,22.80
2019-02-08T13:20:26.392Z,22.60
2019-02-08T13:22:55.178Z,23.30
2019-02-08T13:25:25.139Z,23.90
2019-02-08T13:27:54.539Z,25.60
2019-02-08T13:30:35.531Z,27.70
2019-02-08T13:33:07.312Z,30.20
2019-02-08T13:35:36.190Z,32.30
2019-02-08T13:38:04.855Z,33.40
2019-02-08T13:40:42.909Z,34.00
2019-02-08T13:43:14.919Z,34.30
2019-02-08T13:45:43.986Z,34.70
2019-02-08T13:48:12.719Z,34.90
2019-02-08T13:50:50.638Z,34.50
2019-02-08T13:53:19.557Z,34.30
2019-02-08T13:55:51.254Z,34.40
2019-02-08T13:58:20.176Z,34.70
2019-02-08T14:00:58.299Z,34.80
2019-02-08T14:03:27.197Z,35.30
2019-02-08T14:05:57.027Z,34.70
2019-02-08T14:08:26.930Z,34.80
2019-02-08T14:11:07.948Z,34.80
2019-02-08T14:13:42.841Z,34.90
2019-02-08T14:16:11.841Z,34.80
2019-02-08T14:18:40.753Z,34.80
2019-02-08T14:21:21.608Z,36.00
2019-02-08T14:23:50.526Z,37.00
2019-02-08T14:26:19.399Z,37.50
2019-02-08T14:28:50.769Z,37.30
2019-02-08T14:31:32.031Z,37.70
2019-02-08T14:34:00.914Z,38.30
2019-02-08T14:36:29.820Z,38.00
2019-02-08T14:38:58.487Z,38.70
2019-02-08T14:41:36.480Z,38.80
2019-02-08T14:44:05.232Z,38.60
2019-02-08T14:46:34.227Z,38.30
2019-02-08T14:49:03.125Z,38.10
2019-02-08T14:51:41.100Z,38.90
2019-02-08T14:54:09.995Z,38.50
2019-02-08T14:56:39.160Z,38.70
2019-02-08T14:59:07.936Z,39.00
2019-02-08T15:01:46.153Z,40.10
2019-02-08T15:04:14.942Z,39.80
2019-02-08T15:06:44.783Z,41.50
2019-02-08T15:09:13.462Z,41.50
2019-02-08T15:11:51.201Z,41.40
2019-02-08T15:14:20.472Z,40.20
2019-02-08T15:16:49.211Z,39.70
2019-02-08T15:19:18.014Z,40.60
2019-02-08T15:21:56.328Z,39.60
2019-02-08T15:24:25.338Z,40.90
2019-02-08T15:26:54.058Z,40.70
2019-02-08T15:29:22.796Z,41.70
2019-02-08T15:32:00.465Z,40.30
2019-02-08T15:34:29.232Z,39.90
2019-02-08T15:36:57.911Z,39.70
2019-02-08T15:39:26.828Z,40.70
2019-02-08T15:44:39.180Z,41.00
2019-02-08T15:47:10.386Z,40.90
2019-02-08T15:49:39.226Z,41.00
2019-02-08T15:52:17.331Z,41.40
2019-02-08T15:54:47.109Z,41.20
2019-02-08T15:57:18.939Z,41.20
2019-02-08T15:59:47.748Z,41.10
2019-02-08T16:02:27.750Z,41.10
2019-02-08T16:04:58.570Z,41.40
2019-02-08T16:07:27.272Z,41.40
2019-02-08T16:09:59.137Z,41.30
2019-02-08T16:12:36.700Z,39.80
2019-02-08T16:15:06.757Z,40.90
2019-02-08T16:17:36.632Z,41.00
2019-02-08T16:20:05.966Z,40.80
2019-02-08T16:22:45.908Z,40.80
2019-02-08T16:25:16.314Z,41.10
2019-02-08T16:27:45.101Z,41.00
2019-02-08T16:30:16.524Z,40.90
2019-02-08T16:32:54.350Z,40.90
2019-02-08T16:35:23.281Z,41.10
2019-02-08T16:37:52.004Z,41.30
2019-02-08T16:40:22.513Z,41.30
2019-02-08T16:45:35.090Z,41.40
2019-02-08T16:48:04.921Z,41.60
2019-02-08T16:50:33.910Z,41.50
2019-02-08T16:53:12.801Z,41.20
2019-02-08T16:55:47.966Z,41.00
2019-02-08T16:58:17.710Z,41.40
2019-02-08T17:00:46.382Z,41.60
2019-02-08T17:03:24.485Z,41.80
2019-02-08T17:05:53.239Z,42.10
2019-02-08T17:08:21.994Z,42.10
2019-02-08T17:10:50.727Z,42.40
2019-02-08T17:13:22.516Z,42.40
2019-02-08T17:15:51.209Z,42.80
2019-02-08T17:18:20.041Z,42.10
2019-02-08T17:20:50.156Z,42.30
2019-02-08T17:23:28.022Z,42.30
2019-02-08T17:25:59.924Z,42.10
2019-02-08T17:28:28.679Z,42.10
2019-02-08T17:30:57.384Z,41.90
2019-02-08T17:36:19.177Z,42.20
2019-02-08T17:38:49.094Z,42.70
2019-02-08T17:41:19.626Z,42.70
2019-02-08T17:43:48.448Z,42.60
2019-02-08T17:46:26.464Z,43.00
2019-02-08T17:48:55.412Z,43.50
2019-02-08T17:51:24.210Z,43.90
2019-02-08T17:53:53.199Z,43.70
2019-02-08T17:59:05.185Z,43.40
2019-02-08T18:01:34.126Z,43.60
2019-02-08T18:04:06.009Z,43.80
2019-02-08T18:06:44.037Z,44.20
2019-02-08T18:09:12.961Z,43.30
2019-02-08T18:11:42.063Z,43.40
2019-02-08T18:14:11.791Z,43.30
2019-02-08T18:16:49.537Z,43.60
2019-02-08T18:19:18.253Z,43.70
2019-02-08T18:21:46.941Z,43.80
2019-02-08T18:24:15.615Z,44.30
2019-02-08T18:26:53.558Z,44.20
2019-02-08T18:29:22.614Z,44.70
2019-02-08T18:31:51.282Z,44.50
2019-02-08T18:34:20.101Z,44.40
2019-02-08T18:39:32.283Z,43.90
2019-02-08T18:42:03.201Z,43.50
2019-02-08T18:44:31.866Z,43.60
2019-02-08T18:47:10.277Z,43.40
2019-02-08T18:49:39.074Z,43.30
2019-02-08T18:52:07.950Z,43.50
2019-02-08T18:54:36.595Z,43.70
2019-02-08T18:57:14.445Z,44.00
2019-02-08T18:59:43.181Z,44.30
2019-02-08T19:02:14.866Z,44.20
2019-02-08T19:04:43.677Z,44.50
2019-02-08T19:07:21.325Z,44.80
2019-02-08T19:09:50.285Z,44.70
2019-02-08T19:12:18.994Z,44.50
2019-02-08T19:14:50.958Z,44.40
2019-02-08T19:17:28.681Z,44.30
2019-02-08T19:19:57.346Z,44.20
2019-02-08T19:22:26.462Z,44.30
2019-02-08T19:24:57.603Z,44.80
2019-02-08T19:30:13.734Z,44.00
2019-02-08T19:32:42.399Z,44.10
2019-02-08T19:35:11.366Z,44.20
2019-02-08T19:40:31.837Z,43.90
